Aérodrome :
LOGIN :

S'inscrire | Disclaimer

   EN    FR    IT 

 










Légende :    VFR   VFR Marginal   IFR   IFR Intensif   IFR Très Intensif
Visi : 
Plafond : 
>= 8 km
>= 3000ft
5 à 8 km
1000 à 3000 ft
1500m à 5 km
500 à 1000 ft
800 à 1500m
200 à 500 ft
< 800m
< 200 ft
Symboles :   Orages  Brouillard  Fortes neiges  Fortes précipitations  Vent > 20 kt
SIGMETs :   Divers  Orages  Givrage  Turbulence  Onde Orograph.  Cendres Volcan.






- Altitude de l'aérodrome : 392 ft
- Code IATA : CDG


LFPG - Paris-Aeroport Charles De Gaulle

DERNIER METAR :
  • 171200Z 01009KT 350V110 9999 FEW017 SCT250 08/03 Q1009 NOSIG

METARs EXPIRÉS :
  • 171130Z 02006KT 340V050 9999 FEW010 SCT043 07/03 Q1009 NOSIG
  • 171100Z VRB04KT 9999 FEW009 BKN043 06/03 Q1009 NOSIG
  • 171030Z 01004KT 290V070 9999 FEW006 BKN040 06/03 Q1010 NOSIG
  • 171000Z VRB02KT 9999 FEW006 BKN040 05/03 Q1010 NOSIG
  • 170930Z VRB03KT 9999 FEW005 BKN040 05/03 Q1010 NOSIG

TAF TAF LFPG
Valide du 17 à 12h jusqu'au 18 à 18h UTC


171100Z 1712/1818 02005KT CAVOK TX08/1714Z TN03/1803Z
PROB40 1800/1806 4000 BR BKN008
BECMG 1808/1811 27010KT BKN010
TEMPO 1808/1815 4000 -RA BKN005
ATIS : +33 1 48 62 10 92



MET'MAP, la Météo Aéronautique d'un coup d'oeil ! - Copyright ORBIFLY Décembre 2007 - Disclaimer

ORBIFLY MET'MAP TEAM :

Programmation & Développement : Alexandra Zaïnal
Conception & Développement : Baudouin d'Aumeries
Co-Programmation & Développement : Marc-Olivier Méhu
Soutien technique & logistique : Manuel Goepfert

Contact : metmap@orbifly.com




SOURCES & CREDITS :

   NOAA